Sonora Municipal Airport Sonora US
ICAO: KSOA
IATA: SOA
Category: Medium
Scheduled Services: No

Elevation: 2140 ft
TransAlt. 18000 ft.

Airport Communications:
AWOS 3:118.075
HOUSTON CNTR:125.75
CTAF/UNICOM:122.8

KSOA Zoom In..

If you have problems with the map follow the link
https://www.worldairports.se/pages/airport.php?
ICAO=KSOA

Runways:

(A) RW 18 length 4037 ft width 60 ft
---- / hdg 182

(B) RW 36 length 4037 ft width 60 ft
---- / hdg 2

Location; KSOA
Day. 10 / Time. 01.35 Zulu
* Altimeter: 30.02
* Temperature: 15° c. 59°f.
* Wind from: 350° Speed 08 kn.
Dewpoint: 06° c.
Visibility: 10 Statute Miles.
Clouds: Clear (automated report).

KSOA 100135Z AUTO 35008KT 10SM CLR 15/06 A3002 RMK AO2


Wind From 350°
Speed 08 kn.

 
 
jpsmedia worldairports.se 2019   terms of use